Latest Coastal Weather Observations for Browse Island

IDD60701

Issued at 3:55 am CST Wednesday 24 September 2014 (issued every 10 minutes, with the page automatically refreshed every 10 minutes)

About coastal observations | Map of coastal stations | Coastal observations for NT | Marine services | Other Formats
Station Details ID: 200784 Name: BROWSE ISLAND Lat: -14.11 Lon: 123.55 Height: 3.7 m
Data from the previous 72 hours. | See also: Recent months for locations in Northern Territory
Date/Time
CST
Temp

°C
Wind Pressure Rain
since 9am
mm
Weather Cloud Vis
km
Sea
Height
m
Swell
Dir
 
Speed
knots
Gust
knots
hPa Trend Height
m
Period
s
Dir
24/03:30am 27.5 S 15 18 1011.4 - - - - - - - - -
24/03:00am 27.3 S 14 16 1011.9 - - - - - - - - -
24/02:30am 27.4 SSW 15 17 1011.9 - - - - - - - - -
24/02:00am 27.5 SSW 15 17 1012.0 - - - - - - - - -
24/01:30am 27.7 SSW 15 18 1012.3 - - - - - - - - -
24/01:00am 27.6 SSW 16 19 1012.5 - - - - - - - - -
24/12:30am 28.0 SW 16 18 1012.5 - - - - - - - - -
24/12:00am 27.4 SW 18 21 1012.5 - - - - - - - - -
 
Date/Time
CST
Temp

°C
Wind Pressure Rain
since 9am
mm
Weather Cloud Vis
km
Sea
Height
m
Swell
Dir
 
Speed
knots
Gust
knots
hPa Trend Height
m
Period
s
Dir
23/11:30pm 26.9 SW 12 14 1013.0 - - - - - - - - -
23/11:00pm 26.7 SW 16 18 1012.8 - - - - - - - - -
23/10:30pm 26.7 SW 15 18 1013.1 - - - - - - - - -
23/10:00pm 26.8 SW 13 14 1013.2 - - - - - - - - -
23/09:30pm 26.9 SW 11 13 1013.1 - - - - - - - - -
23/09:00pm 26.9 SW 11 13 1012.8 - - - - - - - - -
23/08:30pm 27.0 SSW 9 11 1012.8 - - - - - - - - -
23/08:00pm 26.8 SSW 9 10 1012.5 - - - - - - - - -
23/07:30pm 26.8 SSW 9 10 1012.3 - - - - - - - - -
23/07:00pm 27.0 SSW 10 11 1012.1 - - - - - - - - -
23/06:30pm 27.0 S 9 11 1011.9 - - - - - - - - -
23/06:00pm 27.0 SSW 9 10 1011.8 - - - - - - - - -
23/05:30pm 27.1 SSW 10 11 1011.6 - - - - - - - - -
23/05:00pm 27.0 SSW 9 10 1011.5 - - - - - - - - -
23/04:30pm 27.0 S 8 9 1011.5 - - - - - - - - -
23/04:00pm 27.2 S 8 9 1011.6 - - - - - - - - -
23/03:30pm 27.3 S 7 9 1012.1 - - - - - - - - -
23/03:00pm 27.1 S 8 9 1012.3 - - - - - - - - -
23/02:30pm 27.0 S 8 10 1012.5 - - - - - - - - -
23/02:00pm 27.2 S 9 10 1012.8 - - - - - - - - -
23/01:30pm 27.1 SSW 9 10 1013.1 - - - - - - - - -
23/01:00pm 27.2 SSW 9 11 1013.4 - - - - - - - - -
23/12:30pm 27.3 SSW 8 11 1013.9 - - - - - - - - -
23/12:00pm 27.2 SSW 8 10 1014.1 - - - - - - - - -
23/11:30am 27.2 SSW 8 10 1014.3 - - - - - - - - -
23/11:00am 27.1 SSW 11 13 1014.3 - - - - - - - - -
23/10:30am 27.0 SSW 11 13 1014.4 - - - - - - - - -
23/10:00am 27.0 SW 9 11 1014.3 - - - - - - - - -
23/09:30am 26.8 SW 9 11 1014.2 - - - - - - - - -
23/09:00am 26.7 SSW 8 9 1014.1 - - - - - - - - -
23/08:30am 26.7 SSW 10 12 1013.9 - - - - - - - - -
23/08:00am 26.7 SW 12 14 1013.2 - - - - - - - - -
23/07:30am 26.6 SW 13 15 1012.8 - - - - - - - - -
23/07:00am 26.5 SW 11 13 1012.8 - - - - - - - - -
23/06:30am 26.2 SW 13 16 1012.4 - - - - - - - - -
23/06:00am 26.8 SW 13 15 1012.2 - - - - - - - - -
23/05:30am 26.3 WSW 13 14 1011.9 - - - - - - - - -
23/05:00am 26.3 WSW 15 16 1011.7 - - - - - - - - -
23/04:30am 26.4 WSW 14 16 1011.5 - - - - - - - - -
23/04:00am 26.1 W 13 15 1011.4 - - - - - - - - -
23/03:30am 26.2 W 15 16 1011.4 - - - - - - - - -
23/03:00am 26.1 W 15 16 1011.6 - - - - - - - - -
23/02:30am 26.3 W 12 14 1011.9 - - - - - - - - -
23/02:00am 26.3 W 13 14 1012.4 - - - - - - - - -
23/01:30am 26.2 W 12 14 1012.7 - - - - - - - - -
23/01:00am 26.0 W 11 12 1012.9 - - - - - - - - -
23/12:30am 26.1 WNW 9 11 1013.1 - - - - - - - - -
23/12:00am 26.1 W 10 11 1013.3 - - - - - - - - -
 
Date/Time
CST
Temp

°C
Wind Pressure Rain
since 9am
mm
Weather Cloud Vis
km
Sea
Height
m
Swell
Dir
 
Speed
knots
Gust
knots
hPa Trend Height
m
Period
s
Dir
22/11:30pm 26.2 W 10 11 1013.4 - - - - - - - - -
22/11:00pm 26.3 W 9 10 1013.8 - - - - - - - - -
22/10:30pm 26.5 W 8 8 1013.8 - - - - - - - - -
22/10:00pm 26.6 W 7 8 1013.7 - - - - - - - - -
22/09:30pm 26.6 WSW 8 9 1013.8 - - - - - - - - -
22/09:00pm 26.8 WSW 7 8 1013.5 - - - - - - - - -
22/08:30pm 26.5 WSW 7 8 1013.1 - - - - - - - - -
22/08:00pm 26.6 WSW 6 7 1012.9 - - - - - - - - -
22/07:30pm 26.8 WSW 4 5 1012.5 - - - - - - - - -
22/07:00pm 26.8 SW 6 7 1012.1 - - - - - - - - -
22/06:30pm 26.9 SW 7 9 1011.9 - - - - - - - - -
22/06:00pm 27.0 SW 10 11 1011.7 - - - - - - - - -
22/05:30pm 27.3 SW 8 11 1011.7 - - - - - - - - -
22/05:00pm 27.3 SW 9 12 1011.6 - - - - - - - - -
22/04:30pm 27.4 SW 13 15 1011.5 - - - - - - - - -
22/04:00pm 27.2 SW 15 16 1011.4 - - - - - - - - -
22/03:30pm 26.9 SW 14 16 1011.6 - - - - - - - - -
22/03:00pm 27.1 SW 14 15 1011.8 - - - - - - - - -
22/02:30pm 27.0 SW 12 14 1012.1 - - - - - - - - -
22/02:00pm 27.1 SW 13 14 1012.6 - - - - - - - - -
22/01:30pm 27.0 SW 13 14 1013.1 - - - - - - - - -
22/01:00pm 27.2 SW 12 13 1013.5 - - - - - - - - -
22/12:30pm 27.1 SW 11 12 1013.9 - - - - - - - - -
22/12:00pm 27.0 SW 12 14 1014.3 - - - - - - - - -
22/11:30am 26.9 SW 14 15 1014.4 - - - - - - - - -
22/11:00am 26.9 SW 14 16 1014.4 - - - - - - - - -
22/10:30am 26.9 SW 14 15 1014.7 - - - - - - - - -
22/10:00am 26.6 SW 13 14 1014.7 - - - - - - - - -
22/09:30am 26.5 WSW 11 13 1014.7 - - - - - - - - -
22/09:00am 26.5 WSW 11 12 1014.6 - - - - - - - - -
22/08:30am 26.5 WSW 8 11 1014.4 - - - - - - - - -
22/08:00am 26.4 WSW 8 9 1014.1 - - - - - - - - -
22/07:30am 26.4 WSW 8 9 1013.8 - - - - - - - - -
22/07:00am 26.4 WSW 8 9 1013.4 - - - - - - - - -
22/06:30am 26.3 WSW 8 9 1013.0 - - - - - - - - -
22/06:00am 26.4 WSW 9 11 1012.8 - - - - - - - - -
22/05:30am 26.2 W 11 13 1012.4 - - - - - - - - -
22/05:00am 26.3 WSW 12 13 1012.1 - - - - - - - - -
22/04:30am 26.1 WSW 12 13 1011.9 - - - - - - - - -
22/04:00am 26.2 WSW 11 13 1011.8 - - - - - - - - -
22/03:30am 26.3 WSW 12 14 1012.0 - - - - - - - - -
22/03:00am 26.6 W 12 14 1012.2 - - - - - - - - -
22/02:30am 26.5 W 12 13 1012.4 - - - - - - - - -
22/02:00am 26.5 W 12 14 1012.7 - - - - - - - - -
22/01:30am 26.7 W 12 14 1012.9 - - - - - - - - -
22/01:00am 26.7 WSW 12 14 1013.3 - - - - - - - - -
22/12:30am 26.7 W 11 13 1013.7 - - - - - - - - -
22/12:00am 26.9 W 9 11 1014.0 - - - - - - - - -
 
Date/Time
CST
Temp

°C
Wind Pressure Rain
since 9am
mm
Weather Cloud Vis
km
Sea
Height
m
Swell
Dir
 
Speed
knots
Gust
knots
hPa Trend Height
m
Period
s
Dir
21/11:30pm 26.8 W 8 10 1014.2 - - - - - - - - -
21/11:00pm 26.8 W 10 11 1014.1 - - - - - - - - -
21/10:30pm 26.8 W 10 12 1013.8 - - - - - - - - -
21/10:00pm 26.9 W 10 12 1013.8 - - - - - - - - -
21/09:30pm 27.1 WSW 10 11 1013.7 - - - - - - - - -
21/09:00pm 27.2 WSW 9 10 1013.8 - - - - - - - - -
21/08:30pm 27.4 WSW 9 10 1013.5 - - - - - - - - -
21/08:00pm 27.4 WSW 8 9 1013.5 - - - - - - - - -
21/07:30pm 27.4 WSW 8 9 1013.2 - - - - - - - - -
21/07:00pm 27.5 W 7 9 1013.0 - - - - - - - - -
21/06:30pm 27.6 W 9 10 1012.7 - - - - - - - - -
21/06:00pm 27.8 W 7 8 1012.5 - - - - - - - - -
21/05:30pm 28.0 W 7 8 1012.4 - - - - - - - - -
21/05:00pm 27.7 WSW 8 10 1012.2 - - - - - - - - -
21/04:30pm 28.1 WSW 6 7 1012.3 - - - - - - - - -
21/04:00pm 28.3 W 5 6 1012.5 - - - - - - - - -
21/03:30pm 28.0 WSW 5 6 1012.6 - - - - - - - - -
21/03:00pm 28.4 WSW 4 5 1013.0 - - - - - - - - -
21/02:30pm 28.5 SW 4 5 1013.3 - - - - - - - - -
21/02:00pm 27.9 SSW 5 6 1013.6 - - - - - - - - -
21/01:30pm 27.9 SW 5 6 1014.0 - - - - - - - - -
21/01:00pm 27.7 SSW 6 7 1014.3 - - - - - - - - -
21/12:30pm 27.4 SSW 5 7 1014.7 - - - - - - - - -
21/12:00pm 27.7 WSW 5 6 1015.3 - - - - - - - - -
21/11:30am 27.8 W 5 6 1015.6 - - - - - - - - -
21/11:00am 27.5 WSW 5 6 1015.7 - - - - - - - - -
21/10:30am 27.5 SW 5 5 1015.9 - - - - - - - - -
21/10:00am 27.2 SSW 6 7 1015.9 - - - - - - - - -
21/09:30am 26.8 SSW 7 8 1015.6 - - - - - - - - -
21/09:00am 26.9 S 7 9 1015.4 - - - - - - - - -
21/08:30am 26.7 S 8 10 1015.1 - - - - - - - - -
21/08:00am 26.7 SSW 8 9 1014.5 - - - - - - - - -
21/07:30am 26.6 SSW 8 10 1014.1 - - - - - - - - -
21/07:00am 26.5 SW 8 9 1013.8 - - - - - - - - -
21/06:30am 26.5 SW 8 9 1013.7 - - - - - - - - -
21/06:00am 26.6 SW 7 8 1013.2 - - - - - - - - -
21/05:30am 26.8 WSW 8 9 1012.8 - - - - - - - - -

Other Formats:

Comma delimited format used in spreadsheet applications
http://www.bom.gov.au/fwo/IDD60701/IDD60701.94103.axf

JavaScript Object Notation format (JSON) in row-major order
http://www.bom.gov.au/fwo/IDD60701/IDD60701.94103.json